createdAt,value
2023-05-19T00:00:14.922Z,102210.20
2023-05-19T00:03:05.201Z,102212.80
2023-05-19T00:05:37.131Z,102215.80
2023-05-19T00:08:06.924Z,102213.40
2023-05-19T00:10:36.321Z,102209.60
2023-05-19T00:13:05.261Z,102213.20
2023-05-19T00:15:34.501Z,102212.20
2023-05-19T00:18:03.403Z,102210.80
2023-05-19T00:20:32.428Z,102212.20
2023-05-19T00:23:01.650Z,102213.20
2023-05-19T00:25:30.226Z,102210.40
2023-05-19T00:27:59.642Z,102208.00
2023-05-19T00:30:29.631Z,102209.00
2023-05-19T00:32:58.694Z,102206.00
2023-05-19T00:35:27.430Z,102205.20
2023-05-19T00:37:56.298Z,102202.40
2023-05-19T00:40:26.135Z,102208.40
2023-05-19T00:42:54.723Z,102211.00
2023-05-19T00:45:24.654Z,102217.60
2023-05-19T00:47:53.369Z,102218.00
2023-05-19T00:50:24.474Z,102223.80
2023-05-19T00:52:53.357Z,102219.20
2023-05-19T00:55:27.477Z,102214.80
2023-05-19T00:57:59.134Z,102216.80
2023-05-19T01:00:28.466Z,102213.20
2023-05-19T01:02:57.630Z,102210.80
2023-05-19T01:05:27.198Z,102216.20
2023-05-19T01:07:56.702Z,102218.00
2023-05-19T01:10:25.331Z,102222.00
2023-05-19T01:12:54.234Z,102216.00
2023-05-19T01:15:26.705Z,102215.40
2023-05-19T01:18:12.238Z,102213.20
2023-05-19T01:20:52.954Z,102216.00
2023-05-19T01:23:37.022Z,102212.80
2023-05-19T01:27:02.216Z,102218.00
2023-05-19T01:30:23.733Z,102213.60
2023-05-19T01:32:57.410Z,102217.60
2023-05-19T01:35:27.803Z,102222.00
2023-05-19T01:37:59.663Z,102223.60
2023-05-19T01:40:29.845Z,102225.60
2023-05-19T01:43:02.108Z,102225.80
2023-05-19T01:45:34.781Z,102226.00
2023-05-19T01:48:06.723Z,102229.00
2023-05-19T01:50:36.479Z,102227.40
2023-05-19T01:53:05.270Z,102230.20
2023-05-19T01:55:51.057Z,102231.20
2023-05-19T01:58:46.165Z,102235.20
2023-05-19T02:01:38.280Z,102233.00
2023-05-19T02:04:25.452Z,102230.20
2023-05-19T02:07:22.987Z,102225.40
2023-05-19T02:10:05.609Z,102221.60
2023-05-19T02:12:40.463Z,102216.20
2023-05-19T02:15:26.328Z,102217.00
2023-05-19T02:17:58.310Z,102213.40
2023-05-19T02:20:27.180Z,102214.20
2023-05-19T02:22:56.816Z,102211.20
2023-05-19T02:25:26.085Z,102211.80
2023-05-19T02:27:55.285Z,102218.60
2023-05-19T02:30:23.965Z,102214.00
2023-05-19T02:32:54.618Z,102215.40
2023-05-19T02:35:23.285Z,102211.60
2023-05-19T02:37:51.976Z,102210.20
2023-05-19T02:40:21.175Z,102208.20
2023-05-19T02:42:49.962Z,102204.80
2023-05-19T02:45:18.863Z,102206.40
2023-05-19T02:47:47.634Z,102211.60
2023-05-19T02:50:16.539Z,102215.60
2023-05-19T02:52:45.342Z,102219.00
2023-05-19T02:55:17.407Z,102218.80
2023-05-19T02:57:46.380Z,102220.00
2023-05-19T03:00:15.947Z,102215.60
2023-05-19T03:02:45.083Z,102218.00
2023-05-19T03:05:14.702Z,102220.40
2023-05-19T03:07:43.379Z,102221.20
2023-05-19T03:10:12.175Z,102218.00
2023-05-19T03:12:41.058Z,102215.60
2023-05-19T03:15:13.429Z,102217.00
2023-05-19T03:17:42.239Z,102218.00
2023-05-19T03:20:11.939Z,102218.60
2023-05-19T03:22:40.625Z,102216.20
2023-05-19T03:25:10.867Z,102210.00
2023-05-19T03:27:39.655Z,102213.20
2023-05-19T03:30:09.823Z,102220.80
2023-05-19T03:32:47.346Z,102219.40
2023-05-19T03:35:16.551Z,102224.40
2023-05-19T03:37:45.239Z,102226.80
2023-05-19T03:40:14.200Z,102224.20
2023-05-19T03:42:43.745Z,102221.80
2023-05-19T03:45:12.739Z,102224.20
2023-05-19T03:47:41.787Z,102227.20
2023-05-19T03:50:23.829Z,102225.60
2023-05-19T03:52:55.715Z,102227.40
2023-05-19T03:55:30.317Z,102226.20
2023-05-19T03:57:59.209Z,102229.60
2023-05-19T04:00:27.994Z,102226.40
2023-05-19T04:02:57.078Z,102230.40
2023-05-19T04:05:26.602Z,102227.40
2023-05-19T04:07:55.565Z,102230.40
2023-05-19T04:10:25.309Z,102229.20
2023-05-19T04:12:56.457Z,102226.80
2023-05-19T04:15:25.339Z,102228.60
2023-05-19T04:17:54.212Z,102228.20
2023-05-19T04:20:23.334Z,102223.20
2023-05-19T04:22:52.734Z,102227.80
2023-05-19T04:25:21.419Z,102225.20
2023-05-19T04:27:50.434Z,102225.60
2023-05-19T04:30:22.697Z,102223.40
2023-05-19T04:32:52.101Z,102220.20
2023-05-19T04:35:21.844Z,102220.00
2023-05-19T04:37:53.766Z,102218.20
2023-05-19T04:40:25.318Z,102212.20
2023-05-19T04:42:54.516Z,102215.80
2023-05-19T04:45:24.430Z,102213.60
2023-05-19T04:47:58.205Z,102215.60
2023-05-19T04:50:28.878Z,102224.40
2023-05-19T04:52:59.612Z,102219.00
2023-05-19T04:55:28.702Z,102218.40
2023-05-19T04:57:57.292Z,102216.40
2023-05-19T05:00:26.485Z,102211.00
2023-05-19T05:03:00.976Z,102211.40
2023-05-19T05:05:32.152Z,102209.60
2023-05-19T05:08:01.771Z,102211.20
2023-05-19T05:10:33.361Z,102204.20
2023-05-19T05:13:03.156Z,102201.60
2023-05-19T05:15:32.529Z,102201.80
2023-05-19T05:18:03.412Z,102204.80
2023-05-19T05:20:33.309Z,102199.60
2023-05-19T05:23:02.680Z,102203.00
2023-05-19T05:25:33.178Z,102198.20
2023-05-19T05:28:05.436Z,102210.40
2023-05-19T05:30:35.515Z,102208.40
2023-05-19T05:33:06.735Z,102206.60
2023-05-19T05:35:38.721Z,102205.80
2023-05-19T05:38:08.521Z,102206.40
2023-05-19T05:40:38.258Z,102202.00
2023-05-19T05:43:07.246Z,102205.40
2023-05-19T05:45:39.069Z,102200.60
2023-05-19T05:48:08.663Z,102204.20
2023-05-19T05:50:37.849Z,102197.00
2023-05-19T05:53:07.905Z,102204.20
2023-05-19T05:55:38.607Z,102200.60
2023-05-19T05:58:11.304Z,102202.40
2023-05-19T06:00:40.030Z,102200.60
2023-05-19T06:03:11.474Z,102200.60
2023-05-19T06:05:40.874Z,102201.60
2023-05-19T06:08:10.705Z,102194.40
2023-05-19T06:10:42.036Z,102188.80
2023-05-19T06:13:11.035Z,102191.20
2023-05-19T06:15:41.609Z,102186.80
2023-05-19T06:18:25.206Z,102188.40
2023-05-19T06:20:54.816Z,102177.80
2023-05-19T06:23:25.572Z,102184.20
2023-05-19T06:25:54.341Z,102183.40
2023-05-19T06:28:23.228Z,102184.60
2023-05-19T06:30:52.739Z,102176.60
2023-05-19T06:33:50.706Z,102174.80
2023-05-19T06:36:20.244Z,102169.60
2023-05-19T06:38:49.106Z,102175.20
2023-05-19T06:41:18.009Z,102163.40
2023-05-19T06:43:48.953Z,102159.40
2023-05-19T06:46:18.150Z,102153.80
2023-05-19T06:48:46.931Z,102158.40
2023-05-19T06:51:21.911Z,102153.60
2023-05-19T06:53:53.413Z,102157.00
2023-05-19T06:56:23.427Z,102157.40
2023-05-19T06:58:52.660Z,102157.00
2023-05-19T07:01:21.986Z,102151.00
2023-05-19T07:03:54.971Z,102148.80
2023-05-19T07:06:24.222Z,102148.80
2023-05-19T07:08:53.928Z,102142.20
2023-05-19T07:11:23.442Z,102139.20
2023-05-19T07:13:52.367Z,102134.00
2023-05-19T07:16:25.745Z,102133.00
2023-05-19T07:18:54.483Z,102128.00
2023-05-19T07:21:23.203Z,102121.20
2023-05-19T07:23:51.990Z,102119.60
2023-05-19T07:26:21.290Z,102119.40
2023-05-19T07:28:49.977Z,102123.40
2023-05-19T07:31:18.765Z,102128.40
2023-05-19T07:33:47.557Z,102125.00
2023-05-19T07:36:16.756Z,102122.00
2023-05-19T07:38:47.410Z,102124.40
2023-05-19T07:41:16.182Z,102120.00
2023-05-19T07:43:44.860Z,102114.80
2023-05-19T07:46:13.577Z,102113.20
2023-05-19T07:48:42.439Z,102114.60
2023-05-19T07:51:12.917Z,102110.60
2023-05-19T07:53:41.572Z,102109.60
2023-05-19T07:56:10.557Z,102114.20
2023-05-19T07:58:39.437Z,102118.60
2023-05-19T08:01:08.817Z,102122.00
2023-05-19T08:03:37.748Z,102121.20
2023-05-19T08:06:06.522Z,102120.20
2023-05-19T08:08:35.209Z,102123.80
2023-05-19T08:11:04.879Z,102123.40
2023-05-19T08:13:34.951Z,102124.80
2023-05-19T08:16:04.347Z,102119.00
2023-05-19T08:18:33.036Z,102116.00
2023-05-19T08:21:01.933Z,102112.00
2023-05-19T08:23:30.508Z,102111.60
2023-05-19T08:25:59.409Z,102108.00
2023-05-19T08:28:28.055Z,102109.80
2023-05-19T08:30:56.798Z,102109.00
2023-05-19T08:33:26.049Z,102105.00
2023-05-19T08:35:58.336Z,102106.80
2023-05-19T08:38:27.176Z,102104.00
2023-05-19T08:40:58.384Z,102104.00
2023-05-19T08:43:27.182Z,102106.60
2023-05-19T08:45:56.172Z,102107.40
2023-05-19T08:48:24.852Z,102113.20
2023-05-19T08:51:35.525Z,102101.20
2023-05-19T08:54:16.317Z,102109.40
2023-05-19T08:56:46.003Z,102113.00
2023-05-19T08:59:16.351Z,102110.40
2023-05-19T09:01:46.767Z,102121.20
2023-05-19T09:04:17.607Z,102117.40
2023-05-19T09:06:46.390Z,102125.60
2023-05-19T09:09:15.887Z,102118.80
2023-05-19T09:11:47.348Z,102114.20
2023-05-19T09:14:16.333Z,102112.80
2023-05-19T09:16:48.681Z,102109.40
2023-05-19T09:19:17.974Z,102108.60
2023-05-19T09:21:46.799Z,102108.60
2023-05-19T09:24:15.798Z,102113.40
2023-05-19T09:26:45.096Z,102110.60
2023-05-19T09:29:16.168Z,102107.20
2023-05-19T09:31:54.227Z,102106.40
2023-05-19T09:34:25.177Z,102106.00
2023-05-19T09:36:54.357Z,102111.40
2023-05-19T09:39:25.325Z,102111.20
2023-05-19T09:41:56.377Z,102109.40
2023-05-19T09:44:31.786Z,102109.00
2023-05-19T09:47:00.807Z,102110.80
2023-05-19T09:49:31.555Z,102102.00
2023-05-19T09:52:04.035Z,102094.80
2023-05-19T09:54:34.920Z,102102.80
2023-05-19T09:57:08.527Z,102097.40
2023-05-19T09:59:39.348Z,102102.00
2023-05-19T10:02:17.079Z,102095.40
2023-05-19T10:04:48.103Z,102096.40
2023-05-19T10:07:18.250Z,102097.00
2023-05-19T10:09:49.168Z,102090.20
2023-05-19T10:12:18.698Z,102094.60
2023-05-19T10:14:49.176Z,102093.80
2023-05-19T10:17:18.218Z,102086.20
2023-05-19T10:19:51.519Z,102085.40
2023-05-19T10:22:20.206Z,102082.20
2023-05-19T10:24:49.299Z,102084.00
2023-05-19T10:27:19.247Z,102089.80
2023-05-19T10:29:51.180Z,102090.80
2023-05-19T10:32:28.781Z,102090.60
2023-05-19T10:35:34.321Z,102094.20
2023-05-19T10:38:27.692Z,102089.80
2023-05-19T10:41:35.404Z,102096.40
2023-05-19T10:44:45.757Z,102101.40
2023-05-19T10:47:14.837Z,102102.20
2023-05-19T10:49:43.647Z,102103.60
2023-05-19T10:52:26.233Z,102094.40
2023-05-19T10:54:55.468Z,102094.80
2023-05-19T10:57:28.663Z,102085.00
2023-05-19T10:59:57.850Z,102078.40
2023-05-19T11:02:44.252Z,102084.60
2023-05-19T11:05:18.732Z,102083.20
2023-05-19T11:08:08.455Z,102080.40
2023-05-19T11:10:37.701Z,102082.80
2023-05-19T11:13:06.969Z,102085.60
2023-05-19T11:15:39.505Z,102086.60
2023-05-19T11:18:08.401Z,102088.00
2023-05-19T11:20:39.573Z,102087.40
2023-05-19T11:23:09.474Z,102086.80
2023-05-19T11:25:43.968Z,102088.40
2023-05-19T11:28:15.586Z,102087.40
2023-05-19T11:30:49.506Z,102089.00
2023-05-19T11:33:20.228Z,102092.00
2023-05-19T11:35:51.703Z,102083.40
2023-05-19T11:38:23.925Z,102089.40
2023-05-19T11:40:57.025Z,102087.80
2023-05-19T11:43:26.714Z,102094.40
2023-05-19T11:45:56.496Z,102089.00
2023-05-19T11:48:26.851Z,102093.80
2023-05-19T11:50:57.301Z,102095.00
2023-05-19T11:53:26.290Z,102094.20
2023-05-19T11:55:55.077Z,102096.00
2023-05-19T11:58:28.271Z,102090.80
2023-05-19T12:00:56.964Z,102093.00
2023-05-19T12:03:28.531Z,102092.60
2023-05-19T12:05:57.763Z,102093.40
2023-05-19T12:08:27.833Z,102092.20
2023-05-19T12:10:57.245Z,102089.00
2023-05-19T12:13:26.529Z,102081.80
2023-05-19T12:16:00.883Z,102079.20
2023-05-19T12:18:37.868Z,102074.80
2023-05-19T12:21:07.051Z,102083.80
2023-05-19T12:23:35.880Z,102082.20
2023-05-19T12:26:04.990Z,102081.60
2023-05-19T12:28:34.119Z,102075.40
2023-05-19T12:31:03.059Z,102073.20
2023-05-19T12:33:35.742Z,102068.20
2023-05-19T12:36:06.124Z,102064.60
2023-05-19T12:38:37.782Z,102059.00
2023-05-19T12:41:07.482Z,102058.00
2023-05-19T12:43:37.205Z,102055.20
2023-05-19T12:46:16.821Z,102058.20
2023-05-19T12:48:47.168Z,102055.40
2023-05-19T12:51:20.340Z,102054.80
2023-05-19T12:53:50.813Z,102052.00
2023-05-19T12:56:19.365Z,102053.20
2023-05-19T12:58:48.261Z,102046.00
2023-05-19T13:01:19.078Z,102051.60
2023-05-19T13:03:48.656Z,102057.80
2023-05-19T13:06:17.700Z,102056.00
2023-05-19T13:08:47.593Z,102057.60
2023-05-19T13:11:16.416Z,102056.80
2023-05-19T13:13:45.713Z,102058.40
2023-05-19T13:16:14.614Z,102048.20
2023-05-19T13:18:43.610Z,102051.20
2023-05-19T13:21:12.386Z,102047.80
2023-05-19T13:23:41.342Z,102048.80
2023-05-19T13:26:11.838Z,102041.80
2023-05-19T13:28:40.504Z,102048.00
2023-05-19T13:31:09.509Z,102043.00
2023-05-19T13:33:38.484Z,102050.20
2023-05-19T13:36:07.597Z,102053.40
2023-05-19T13:38:36.788Z,102047.00
2023-05-19T13:41:05.978Z,102045.40
2023-05-19T13:43:34.887Z,102046.40
2023-05-19T13:46:03.760Z,102047.80
2023-05-19T13:48:32.552Z,102046.80
2023-05-19T13:51:01.772Z,102041.40
2023-05-19T13:53:31.599Z,102037.40
2023-05-19T13:56:01.580Z,102039.40
2023-05-19T13:58:30.907Z,102038.20
2023-05-19T14:01:00.389Z,102037.00
2023-05-19T14:03:30.214Z,102031.40
2023-05-19T14:05:59.107Z,102028.80
2023-05-19T14:08:28.604Z,102032.60
2023-05-19T14:10:57.598Z,102037.20
2023-05-19T14:13:33.668Z,102031.80
2023-05-19T14:16:05.008Z,102031.00
2023-05-19T14:18:34.195Z,102029.20
2023-05-19T14:21:03.166Z,102028.80
2023-05-19T14:23:32.696Z,102022.20
2023-05-19T14:26:01.898Z,102018.80
2023-05-19T14:28:30.791Z,102021.40
2023-05-19T14:31:00.418Z,102030.60
2023-05-19T14:33:32.761Z,102030.40
2023-05-19T14:36:05.714Z,102027.20
2023-05-19T14:38:34.671Z,102039.60
2023-05-19T14:41:04.039Z,102050.60
2023-05-19T14:43:33.046Z,102057.80
2023-05-19T14:46:02.047Z,102052.00
2023-05-19T14:48:31.135Z,102049.40
2023-05-19T14:51:00.127Z,102044.80
2023-05-19T14:53:29.227Z,102047.00
2023-05-19T14:55:58.328Z,102048.80
2023-05-19T14:58:29.236Z,102051.20
2023-05-19T15:01:00.880Z,102047.60
2023-05-19T15:03:29.962Z,102050.60
2023-05-19T15:05:58.909Z,102046.00
2023-05-19T15:08:27.900Z,102051.00
2023-05-19T15:10:56.801Z,102055.40
2023-05-19T15:13:26.920Z,102060.60
2023-05-19T15:16:12.372Z,102069.00
2023-05-19T15:18:45.347Z,102068.60
2023-05-19T15:21:14.447Z,102068.20
2023-05-19T15:23:43.178Z,102069.20
2023-05-19T15:26:12.569Z,102065.40
2023-05-19T15:28:41.661Z,102067.80
2023-05-19T15:31:10.556Z,102061.20
2023-05-19T15:33:39.554Z,102061.20
2023-05-19T15:36:08.446Z,102061.60
2023-05-19T15:38:37.675Z,102058.00
2023-05-19T15:41:08.596Z,102048.20
2023-05-19T15:43:38.319Z,102051.20
2023-05-19T15:46:07.598Z,102051.80
2023-05-19T15:48:36.495Z,102049.60
2023-05-19T15:51:07.368Z,102049.20
2023-05-19T15:53:37.831Z,102049.00
2023-05-19T15:56:07.971Z,102048.00
2023-05-19T15:58:37.796Z,102045.40
2023-05-19T16:01:07.854Z,102053.00
2023-05-19T16:03:37.527Z,102054.80
2023-05-19T16:06:06.395Z,102053.80
2023-05-19T16:08:35.001Z,102060.60
2023-05-19T16:11:04.870Z,102055.80
2023-05-19T16:13:34.479Z,102053.80
2023-05-19T16:16:03.550Z,102049.20
2023-05-19T16:18:32.435Z,102056.40
2023-05-19T16:21:01.065Z,102050.60
2023-05-19T16:23:30.056Z,102055.20
2023-05-19T16:25:58.893Z,102055.80
2023-05-19T16:28:28.395Z,102058.40
2023-05-19T16:31:00.962Z,102058.20
2023-05-19T16:33:30.471Z,102054.00
2023-05-19T16:36:00.272Z,102052.00
2023-05-19T16:38:29.087Z,102048.00
2023-05-19T16:40:57.957Z,102046.40
2023-05-19T16:43:26.661Z,102047.60
2023-05-19T16:45:55.754Z,102050.60
2023-05-19T16:48:24.736Z,102051.60
2023-05-19T16:50:53.419Z,102051.00
2023-05-19T16:53:22.205Z,102053.60
2023-05-19T16:55:51.203Z,102053.40
2023-05-19T16:58:20.096Z,102053.60
2023-05-19T17:00:53.017Z,102049.40
2023-05-19T17:03:22.120Z,102052.00
2023-05-19T17:05:51.183Z,102054.20
2023-05-19T17:08:19.966Z,102057.60
2023-05-19T17:10:48.764Z,102055.40
2023-05-19T17:13:17.462Z,102054.40
2023-05-19T17:15:46.329Z,102056.80
2023-05-19T17:18:16.396Z,102055.40
2023-05-19T17:20:45.135Z,102057.20
2023-05-19T17:23:13.926Z,102059.40
2023-05-19T17:25:42.716Z,102053.00
2023-05-19T17:28:11.605Z,102060.40
2023-05-19T17:30:41.631Z,102061.80
2023-05-19T17:33:10.744Z,102059.60
2023-05-19T17:35:39.613Z,102059.40
2023-05-19T17:38:08.299Z,102055.20
2023-05-19T17:40:37.234Z,102059.20
2023-05-19T17:43:06.501Z,102061.80
2023-05-19T17:45:35.501Z,102067.20
2023-05-19T17:48:05.373Z,102076.40
2023-05-19T17:50:34.284Z,102077.40
2023-05-19T17:53:04.104Z,102078.20
2023-05-19T17:55:33.818Z,102080.80
2023-05-19T17:58:03.220Z,102078.20
2023-05-19T18:00:33.383Z,102080.60
2023-05-19T18:03:04.749Z,102082.00
2023-05-19T18:05:34.493Z,102083.60
2023-05-19T18:08:07.840Z,102086.40
2023-05-19T18:10:39.860Z,102084.60
2023-05-19T18:13:11.185Z,102087.60
2023-05-19T18:15:40.211Z,102086.40
2023-05-19T18:18:11.129Z,102086.40
2023-05-19T18:20:41.447Z,102091.80
2023-05-19T18:23:10.156Z,102090.40
2023-05-19T18:25:38.845Z,102083.80
2023-05-19T18:28:08.358Z,102083.00
2023-05-19T18:30:37.038Z,102078.40
2023-05-19T18:33:07.645Z,102085.20
2023-05-19T18:35:37.485Z,102094.40
2023-05-19T18:38:06.891Z,102102.00
2023-05-19T18:40:35.861Z,102098.00
2023-05-19T18:43:04.885Z,102095.00
2023-05-19T18:45:33.700Z,102098.40
2023-05-19T18:48:02.611Z,102101.60
2023-05-19T18:50:31.815Z,102102.00
2023-05-19T18:53:00.959Z,102106.20
2023-05-19T18:55:29.572Z,102105.80
2023-05-19T18:57:58.340Z,102104.20
2023-05-19T19:00:28.810Z,102106.80
2023-05-19T19:02:57.635Z,102106.40
2023-05-19T19:05:26.439Z,102108.40
2023-05-19T19:07:55.132Z,102107.60
2023-05-19T19:10:24.027Z,102105.00
2023-05-19T19:12:52.705Z,102099.00
2023-05-19T19:15:21.401Z,102104.40
2023-05-19T19:17:50.174Z,102104.20
2023-05-19T19:20:19.072Z,102105.40
2023-05-19T19:22:47.976Z,102109.00
2023-05-19T19:25:17.212Z,102112.00
2023-05-19T19:27:45.850Z,102116.40
2023-05-19T19:30:14.645Z,102113.60
2023-05-19T19:32:43.563Z,102112.20
2023-05-19T19:35:12.418Z,102109.80
2023-05-19T19:37:41.210Z,102110.40
2023-05-19T19:40:10.931Z,102104.80
2023-05-19T19:42:41.046Z,102103.00
2023-05-19T19:45:11.550Z,102100.20
2023-05-19T19:47:41.385Z,102101.20
2023-05-19T19:50:11.815Z,102099.80
2023-05-19T19:52:40.492Z,102100.80
2023-05-19T19:55:10.336Z,102103.80
2023-05-19T19:57:38.999Z,102102.00
2023-05-19T20:00:09.334Z,102099.80
2023-05-19T20:02:45.529Z,102100.60
2023-05-19T20:05:24.410Z,102107.20
2023-05-19T20:07:53.299Z,102108.60
2023-05-19T20:10:21.994Z,102107.80
2023-05-19T20:12:50.880Z,102109.00
2023-05-19T20:15:19.773Z,102111.40
2023-05-19T20:17:48.416Z,102112.40
2023-05-19T20:20:17.369Z,102112.80
2023-05-19T20:22:47.369Z,102115.20
2023-05-19T20:25:16.573Z,102117.40
2023-05-19T20:27:45.155Z,102122.60
2023-05-19T20:30:14.872Z,102122.40
2023-05-19T20:32:43.989Z,102120.20
2023-05-19T20:35:13.567Z,102119.80
2023-05-19T20:37:42.254Z,102121.40
2023-05-19T20:40:12.004Z,102119.00
2023-05-19T20:42:41.573Z,102119.60
2023-05-19T20:45:10.466Z,102119.40
2023-05-19T20:47:39.176Z,102123.20
2023-05-19T20:50:09.037Z,102116.00
2023-05-19T20:52:37.874Z,102119.80
2023-05-19T20:55:07.494Z,102124.60
2023-05-19T20:57:36.348Z,102129.00
2023-05-19T21:00:06.156Z,102131.20
2023-05-19T21:02:34.905Z,102125.00
2023-05-19T21:05:04.825Z,102127.40
2023-05-19T21:07:33.669Z,102133.00
2023-05-19T21:10:03.065Z,102123.60
2023-05-19T21:12:34.561Z,102123.00
2023-05-19T21:15:04.234Z,102128.80
2023-05-19T21:17:33.353Z,102131.80
2023-05-19T21:20:02.426Z,102131.80
2023-05-19T21:22:32.448Z,102128.60
2023-05-19T21:25:01.144Z,102134.80
2023-05-19T21:27:30.228Z,102139.40
2023-05-19T21:29:58.817Z,102133.60
2023-05-19T21:32:29.879Z,102136.40
2023-05-19T21:34:58.640Z,102134.40
2023-05-19T21:37:27.449Z,102135.80
2023-05-19T21:39:56.228Z,102139.20
2023-05-19T21:42:25.048Z,102145.60
2023-05-19T21:44:54.007Z,102144.20
2023-05-19T21:47:22.600Z,102144.00
2023-05-19T21:49:51.280Z,102142.40
2023-05-19T21:52:20.165Z,102147.80
2023-05-19T21:54:49.067Z,102148.60
2023-05-19T21:57:18.055Z,102150.00
2023-05-19T21:59:47.009Z,102150.60
2023-05-19T22:02:15.970Z,102146.40
2023-05-19T22:04:45.243Z,102143.40
2023-05-19T22:07:13.829Z,102146.80
2023-05-19T22:09:42.513Z,102147.20
2023-05-19T22:12:11.304Z,102151.40
2023-05-19T22:14:39.989Z,102150.20
2023-05-19T22:17:08.697Z,102151.00
2023-05-19T22:19:37.879Z,102154.20
2023-05-19T22:22:13.885Z,102151.20
2023-05-19T22:24:43.457Z,102146.20
2023-05-19T22:27:12.442Z,102150.60
2023-05-19T22:29:41.119Z,102147.80
2023-05-19T22:32:12.405Z,102146.80
2023-05-19T22:34:41.261Z,102144.80
2023-05-19T22:37:10.044Z,102143.60
2023-05-19T22:39:39.875Z,102136.80
2023-05-19T22:42:08.543Z,102137.60
2023-05-19T22:44:37.236Z,102137.20
2023-05-19T22:47:05.922Z,102135.80
2023-05-19T22:49:34.723Z,102136.40
2023-05-19T22:52:03.401Z,102137.00
2023-05-19T22:54:32.084Z,102137.20
2023-05-19T22:57:01.798Z,102137.60
2023-05-19T22:59:30.378Z,102134.00
2023-05-19T23:01:59.060Z,102128.80
2023-05-19T23:04:28.154Z,102133.40
2023-05-19T23:06:57.049Z,102137.20
2023-05-19T23:09:27.560Z,102136.40
2023-05-19T23:11:56.251Z,102135.80
2023-05-19T23:14:26.388Z,102141.60
2023-05-19T23:16:55.209Z,102138.40
2023-05-19T23:19:24.303Z,102133.80
2023-05-19T23:21:53.062Z,102135.40
2023-05-19T23:24:21.709Z,102131.40
2023-05-19T23:26:51.047Z,102129.60
2023-05-19T23:29:19.636Z,102130.40
2023-05-19T23:31:48.494Z,102129.40
2023-05-19T23:34:17.425Z,102130.60
2023-05-19T23:36:46.213Z,102127.00
2023-05-19T23:39:15.001Z,102129.00
2023-05-19T23:41:43.586Z,102126.20
2023-05-19T23:44:12.377Z,102121.00
2023-05-19T23:46:41.498Z,102117.00
2023-05-19T23:49:10.064Z,102114.40
2023-05-19T23:51:38.753Z,102111.00
2023-05-19T23:54:07.436Z,102107.40
2023-05-19T23:56:36.069Z,102101.20
2023-05-19T23:59:05.213Z,102099.00
